This is the latest recevied weather packets stored in our database for station/object EA8BQU-10. If no packets are shown the sender has not sent any weather packets the latest 10 day(s).
| Time | Temp. | Humidity | Pressure | Rain* | Wind** | Luminosity | Snow |
|---|---|---|---|---|---|---|---|
| 1778005852 | 22.78° C | 93% | 1014.6 hPa | - | - | - | - |
| 1778004952 | 23.33° C | 89% | 1014.7 hPa | - | - | - | - |
| 1778002258 | 23.33° C | 90% | 1014.7 hPa | - | - | - | - |
| 1778001358 | 23.33° C | 90% | 1014.8 hPa | - | - | - | - |
| 1777998657 | 24.44° C | 86% | 1014.7 hPa | - | - | - | - |
| 1777997757 | 23.89° C | 87% | 1014.7 hPa | - | - | - | - |
| 1777995957 | 23.89° C | 88% | 1014.8 hPa | - | - | - | - |
| 1777994156 | 23.33° C | 92% | 1015 hPa | - | - | - | - |
| 1777993256 | 23.33° C | 92% | 1015.3 hPa | - | - | - | - |
| 1777992356 | 23.33° C | 92% | 1015.4 hPa | - | - | - | - |
| 1777990555 | 23.33° C | 94% | 1015.8 hPa | - | - | - | - |
| 1777987855 | 23.33° C | 93% | 1016.2 hPa | - | - | - | - |
| 1777986955 | 23.89° C | 90% | 1016.2 hPa | - | - | - | - |
| 1777984252 | 22.78° C | 91% | 1016.4 hPa | - | - | - | - |
| 1777982451 | 22.22° C | 93% | 1016.6 hPa | - | - | - | - |
| 1777980656 | 22.22° C | 93% | 1016.7 hPa | - | - | - | - |
| 1777979756 | 22.22° C | 94% | 1016.6 hPa | - | - | - | - |
| 1777977055 | 22.22° C | 95% | 1016.6 hPa | - | - | - | - |
| 1777976155 | 22.22° C | 94% | 1016.7 hPa | - | - | - | - |
| 1777975255 | 21.67° C | 95% | 1016.7 hPa | - | - | - | - |
| 1777973455 | 21.67° C | 95% | 1016.5 hPa | - | - | - | - |
| 1777972555 | 21.67° C | 95% | 1016.3 hPa | - | - | - | - |
| 1777971655 | 21.67° C | 96% | 1016.2 hPa | - | - | - | - |
| 1777970755 | 21.67° C | 95% | 1016.2 hPa | - | - | - | - |
| 1777969855 | 21.67° C | 96% | 1016.3 hPa | - | - | - | - |
* Rain since midnight (hover to see other rain measurements)
** Current wind speed in m/s (hover to see current wind gust speed)